Time;durP1;ratioP1;P1;durP2;ratioP2;P2;SDS_P1;SDS_P2;PMS_P1;PMS_P2;Temp;Humidity;BMP_temperature;BMP_pressure;BME280_temperature;BME280_humidity;BME280_pressure;Samples;Min_cycle;Max_cycle;Signal;HPM_P1;HPM_P2
2021/11/22 00:00:19;;;;;;;6.87;3.23;;;5.30;99.90;;;;;;5068565;28;20202;-79
2021/11/22 00:02:47;;;;;;;5.73;3.50;;;5.20;99.90;;;;;;5067097;28;20224;-80
2021/11/22 00:05:14;;;;;;;8.30;3.40;;;5.10;99.90;;;;;;5068583;28;20237;-79
2021/11/22 00:07:41;;;;;;;9.83;3.43;;;5.10;99.90;;;;;;5068469;28;20293;-79
2021/11/22 00:10:09;;;;;;;7.57;3.97;;;5.10;99.90;;;;;;5069104;28;20210;-79
2021/11/22 00:12:36;;;;;;;11.00;5.23;;;5.20;99.90;;;;;;5068580;28;20233;-79
2021/11/22 00:15:07;;;;;;;9.20;4.27;;;5.30;99.90;;;;;;5073048;28;20186;-79
2021/11/22 00:17:35;;;;;;;7.80;4.10;;;5.20;99.90;;;;;;5070253;28;20569;-79
2021/11/22 00:20:02;;;;;;;12.07;5.60;;;5.30;99.90;;;;;;5073367;28;20671;-78
2021/11/22 00:22:29;;;;;;;7.87;4.10;;;5.30;99.90;;;;;;5072809;28;20202;-79
2021/11/22 00:24:56;;;;;;;9.63;4.10;;;5.30;99.90;;;;;;5071265;28;20236;-79
2021/11/22 00:27:23;;;;;;;7.83;4.10;;;5.40;99.90;;;;;;5066136;28;20561;-79
2021/11/22 00:29:50;;;;;;;11.17;4.30;;;5.40;99.90;;;;;;5071754;28;20285;-78
2021/11/22 00:32:18;;;;;;;8.87;4.60;;;5.50;99.90;;;;;;5059430;28;20285;-79
2021/11/22 00:34:46;;;;;;;6.63;3.57;;;5.40;99.90;;;;;;5072551;28;20245;-75
2021/11/22 00:37:19;;;;;;;8.20;4.07;;;5.40;99.90;;;;;;5071607;28;20221;-79
2021/11/22 00:39:46;;;;;;;8.33;4.10;;;5.40;99.90;;;;;;5075764;28;20243;-72
2021/11/22 00:42:13;;;;;;;8.13;3.87;;;5.40;99.90;;;;;;5071850;28;20676;-72
2021/11/22 00:44:43;;;;;;;7.27;3.70;;;5.30;99.90;;;;;;5066728;28;20645;-72
2021/11/22 00:47:12;;;;;;;7.87;3.90;;;5.40;99.90;;;;;;5071544;28;20275;-72
2021/11/22 00:49:43;;;;;;;7.90;4.03;;;5.30;99.90;;;;;;5071646;28;20663;-72
2021/11/22 00:52:10;;;;;;;7.63;3.70;;;5.40;99.90;;;;;;5070434;28;20293;-72
2021/11/22 00:54:39;;;;;;;9.03;4.13;;;5.40;99.90;;;;;;5073286;28;20206;-73
2021/11/22 00:57:07;;;;;;;6.73;3.80;;;5.40;99.90;;;;;;5073779;28;20234;-72
2021/11/22 00:59:34;;;;;;;6.57;4.03;;;5.40;99.90;;;;;;5074896;28;20217;-72
2021/11/22 01:02:01;;;;;;;12.57;4.90;;;5.30;99.90;;;;;;5070315;28;20198;-72
2021/11/22 01:04:29;;;;;;;6.23;3.83;;;5.40;99.90;;;;;;5071794;28;20593;-72
2021/11/22 01:06:57;;;;;;;8.53;3.90;;;5.40;99.90;;;;;;5072353;28;20225;-71
2021/11/22 01:09:24;;;;;;;9.90;4.03;;;5.30;99.90;;;;;;5072704;28;20214;-72
2021/11/22 01:11:51;;;;;;;9.73;4.40;;;5.30;99.90;;;;;;5075440;28;20216;-72
2021/11/22 01:14:18;;;;;;;10.20;4.23;;;5.20;99.90;;;;;;5075158;28;20202;-72
2021/11/22 01:16:45;;;;;;;9.27;3.97;;;5.30;99.90;;;;;;5071226;28;20194;-72
2021/11/22 01:19:12;;;;;;;13.03;4.90;;;5.30;99.90;;;;;;5070746;28;20652;-72
2021/11/22 01:21:42;;;;;;;9.23;4.70;;;5.30;99.90;;;;;;5071418;28;20206;-72
2021/11/22 01:24:12;;;;;;;9.23;3.90;;;5.30;99.90;;;;;;5072398;28;20198;-72
2021/11/22 01:26:39;;;;;;;12.10;4.53;;;5.30;99.90;;;;;;5076005;28;20226;-72
2021/11/22 01:29:06;;;;;;;7.47;4.30;;;5.30;99.90;;;;;;5077994;28;20594;-72
2021/11/22 01:31:33;;;;;;;7.33;4.03;;;5.30;99.90;;;;;;5074438;28;20220;-72
2021/11/22 01:34:00;;;;;;;7.77;3.87;;;5.30;99.90;;;;;;5075413;28;20194;-72
2021/11/22 01:36:27;;;;;;;7.20;4.07;;;5.30;99.90;;;;;;5075387;28;20213;-72
2021/11/22 01:38:53;;;;;;;9.83;4.00;;;5.40;99.90;;;;;;5075807;28;20198;-73
2021/11/22 01:41:22;;;;;;;7.53;3.87;;;5.30;99.90;;;;;;5075898;28;20293;-72
2021/11/22 01:43:49;;;;;;;7.70;3.90;;;5.30;99.90;;;;;;5080700;28;20414;-72
2021/11/22 01:46:17;;;;;;;8.97;3.97;;;5.30;99.90;;;;;;5074209;28;20218;-72
2021/11/22 01:48:44;;;;;;;8.87;4.67;;;5.30;99.90;;;;;;5074600;28;20209;-72
2021/11/22 01:51:11;;;;;;;5.87;3.30;;;5.30;99.90;;;;;;5074632;28;20294;-72
2021/11/22 01:53:38;;;;;;;6.40;3.80;;;5.30;99.90;;;;;;5073969;28;20209;-72
2021/11/22 01:56:05;;;;;;;7.53;3.90;;;5.30;99.90;;;;;;5073602;28;20191;-72
2021/11/22 01:58:34;;;;;;;7.60;3.90;;;5.30;99.90;;;;;;5076808;28;20289;-72
2021/11/22 02:01:01;;;;;;;11.47;4.40;;;5.30;99.90;;;;;;5077796;28;20199;-72
2021/11/22 02:03:28;;;;;;;7.70;4.07;;;5.20;99.90;;;;;;5074820;28;20217;-73
2021/11/22 02:05:54;;;;;;;5.97;3.77;;;5.20;99.90;;;;;;5074843;28;20226;-72
2021/11/22 02:08:22;;;;;;;9.03;3.87;;;5.20;99.90;;;;;;5072771;28;20198;-72
2021/11/22 02:10:52;;;;;;;7.63;4.00;;;5.20;99.90;;;;;;5071775;28;20198;-73
2021/11/22 02:13:19;;;;;;;8.80;4.63;;;5.20;99.90;;;;;;5077950;28;20198;-72
2021/11/22 02:15:48;;;;;;;7.73;4.33;;;5.20;99.90;;;;;;5079822;28;20556;-72
2021/11/22 02:18:18;;;;;;;8.33;4.00;;;5.10;99.90;;;;;;5071273;28;20202;-72
2021/11/22 02:20:47;;;;;;;7.07;3.93;;;5.20;99.90;;;;;;5072709;28;20216;-73
2021/11/22 02:23:15;;;;;;;6.87;3.77;;;5.20;99.90;;;;;;5075305;28;20198;-72
2021/11/22 02:25:44;;;;;;;6.07;3.50;;;5.20;99.90;;;;;;5075731;28;20309;-72
2021/11/22 02:28:13;;;;;;;7.97;4.00;;;5.20;99.90;;;;;;5079219;28;20676;-72
2021/11/22 02:30:45;;;;;;;7.20;3.97;;;5.20;99.90;;;;;;5080611;28;20197;-72
2021/11/22 02:33:21;;;;;;;6.53;3.80;;;5.20;99.90;;;;;;5078030;28;20659;-72
2021/11/22 02:35:51;;;;;;;6.17;3.57;;;5.20;99.90;;;;;;5072789;28;20197;-72
2021/11/22 02:38:19;;;;;;;5.73;3.60;;;5.20;99.90;;;;;;5073140;28;20194;-73
2021/11/22 02:40:46;;;;;;;6.47;3.40;;;5.20;99.90;;;;;;5074433;28;20206;-72
2021/11/22 02:43:14;;;;;;;5.27;3.40;;;5.30;99.90;;;;;;5073087;28;20198;-72
2021/11/22 02:45:41;;;;;;;5.63;3.50;;;5.30;99.90;;;;;;5063663;28;20557;-72
2021/11/22 02:48:10;;;;;;;6.50;3.20;;;5.30;99.90;;;;;;5057562;28;20281;-72
2021/11/22 02:50:37;;;;;;;4.73;3.50;;;5.30;99.90;;;;;;5073910;28;20217;-72
2021/11/22 02:53:05;;;;;;;5.40;3.13;;;5.30;99.90;;;;;;5072864;28;20213;-72
2021/11/22 02:55:33;;;;;;;7.10;3.63;;;5.30;99.90;;;;;;5065501;28;20199;-72
2021/11/22 02:58:00;;;;;;;5.30;3.67;;;5.30;99.90;;;;;;5074042;28;20213;-72
2021/11/22 03:00:29;;;;;;;4.30;3.43;;;5.30;99.90;;;;;;5073040;28;20234;-72
2021/11/22 03:02:56;;;;;;;6.27;3.47;;;5.30;99.90;;;;;;5073799;28;20222;-73
2021/11/22 03:05:25;;;;;;;7.87;4.03;;;5.20;99.90;;;;;;5072594;28;20248;-72
2021/11/22 03:07:53;;;;;;;7.73;3.90;;;5.20;99.90;;;;;;5073430;28;20194;-73
2021/11/22 03:10:25;;;;;;;5.97;3.67;;;5.20;99.90;;;;;;5057433;28;20206;-72
2021/11/22 03:12:53;;;;;;;5.63;3.40;;;5.20;99.90;;;;;;5063238;28;20202;-72
2021/11/22 03:15:22;;;;;;;5.23;3.37;;;5.20;99.90;;;;;;5053569;28;20195;-73
2021/11/22 03:17:49;;;;;;;4.20;3.07;;;5.20;99.90;;;;;;5072785;28;20205;-72
2021/11/22 03:20:19;;;;;;;5.57;3.67;;;5.20;99.90;;;;;;5073488;28;20202;-72
2021/11/22 03:22:46;;;;;;;5.93;3.93;;;5.20;99.90;;;;;;5069407;28;20642;-73
2021/11/22 03:25:15;;;;;;;5.43;3.67;;;5.20;99.90;;;;;;5073104;28;20286;-72
2021/11/22 03:27:44;;;;;;;8.73;3.70;;;5.20;99.90;;;;;;5073120;28;20240;-72
2021/11/22 03:30:14;;;;;;;5.70;3.47;;;5.20;99.90;;;;;;5073511;28;20204;-72
2021/11/22 03:32:41;;;;;;;4.57;3.77;;;5.20;99.90;;;;;;5069890;28;20213;-72
2021/11/22 03:35:09;;;;;;;7.80;3.33;;;5.20;99.90;;;;;;5070575;28;20324;-73
2021/11/22 03:37:36;;;;;;;6.60;3.33;;;5.20;99.90;;;;;;5077011;28;20252;-72
2021/11/22 03:40:05;;;;;;;5.33;3.30;;;5.10;99.90;;;;;;5074073;28;20206;-72
2021/11/22 03:42:40;;;;;;;6.77;3.80;;;5.10;99.90;;;;;;5072432;28;20249;-72
2021/11/22 03:45:11;;;;;;;5.40;3.57;;;5.10;99.90;;;;;;5070539;28;20292;-73
2021/11/22 03:47:38;;;;;;;5.13;3.40;;;5.10;99.90;;;;;;5062217;28;20574;-72
2021/11/22 03:50:07;;;;;;;5.00;3.43;;;5.10;99.90;;;;;;5057418;28;20187;-71
2021/11/22 03:52:34;;;;;;;5.97;3.63;;;5.10;99.90;;;;;;5071757;28;20563;-72
2021/11/22 03:55:00;;;;;;;6.80;3.90;;;5.10;99.90;;;;;;5058484;28;20214;-72
2021/11/22 03:57:27;;;;;;;6.33;3.90;;;5.10;99.90;;;;;;5052496;28;20191;-72
2021/11/22 03:59:55;;;;;;;6.23;3.87;;;5.00;99.90;;;;;;5073046;28;20301;-72
2021/11/22 04:02:24;;;;;;;6.67;3.80;;;5.00;99.90;;;;;;5066668;28;20190;-72
2021/11/22 04:04:51;;;;;;;6.00;3.93;;;5.00;99.90;;;;;;5071643;28;20195;-72
2021/11/22 04:07:18;;;;;;;5.43;3.83;;;5.00;99.90;;;;;;5054231;28;20219;-72
2021/11/22 04:09:45;;;;;;;6.97;4.13;;;4.90;99.90;;;;;;5053064;28;20209;-72
2021/11/22 04:12:11;;;;;;;5.63;4.27;;;4.90;99.90;;;;;;5070207;28;20198;-72
2021/11/22 04:14:38;;;;;;;10.30;4.63;;;4.80;99.90;;;;;;5071932;28;20281;-72
2021/11/22 04:17:05;;;;;;;6.77;4.27;;;4.70;99.90;;;;;;5070073;28;20187;-72
2021/11/22 04:19:34;;;;;;;7.50;4.30;;;4.70;99.90;;;;;;5072418;28;20206;-72
2021/11/22 04:22:01;;;;;;;7.97;4.70;;;4.70;99.90;;;;;;5072483;28;20210;-72
2021/11/22 04:24:28;;;;;;;7.57;4.67;;;4.60;99.90;;;;;;5070922;28;20277;-72
2021/11/22 04:26:55;;;;;;;8.43;4.53;;;4.50;99.90;;;;;;5071774;28;20218;-73
2021/11/22 04:29:22;;;;;;;7.23;4.27;;;4.50;99.90;;;;;;5071978;28;20204;-72
2021/11/22 04:31:48;;;;;;;7.33;4.67;;;4.50;99.90;;;;;;5070711;28;20202;-72
2021/11/22 04:34:15;;;;;;;7.70;4.47;;;4.40;99.90;;;;;;5065449;28;20226;-72
2021/11/22 04:36:44;;;;;;;6.53;4.23;;;4.40;99.90;;;;;;5071644;28;20256;-73
2021/11/22 04:39:11;;;;;;;7.63;4.37;;;4.40;99.90;;;;;;5052259;28;20250;-73
2021/11/22 04:41:38;;;;;;;8.03;4.20;;;4.40;99.90;;;;;;5051801;28;20203;-72
2021/11/22 04:44:05;;;;;;;6.47;4.00;;;4.30;99.90;;;;;;5062197;28;20221;-72
2021/11/22 04:46:33;;;;;;;7.87;4.17;;;4.30;99.90;;;;;;5064240;28;20230;-72
2021/11/22 04:49:00;;;;;;;6.27;3.87;;;4.20;99.90;;;;;;5058268;28;20209;-72
2021/11/22 04:51:28;;;;;;;4.97;3.60;;;4.20;99.90;;;;;;5072177;28;20564;-73
2021/11/22 04:53:56;;;;;;;6.53;4.13;;;4.10;99.90;;;;;;5065565;28;20199;-72
2021/11/22 04:56:24;;;;;;;6.33;3.90;;;4.10;99.90;;;;;;5052250;28;20205;-72
2021/11/22 04:58:51;;;;;;;6.80;3.83;;;4.00;99.90;;;;;;5052269;28;20282;-72
2021/11/22 05:01:17;;;;;;;7.10;4.07;;;4.00;99.90;;;;;;5060917;28;20294;-72
2021/11/22 05:03:46;;;;;;;10.07;4.50;;;3.90;99.90;;;;;;5065214;28;20217;-72
2021/11/22 05:06:13;;;;;;;8.43;3.73;;;3.90;99.90;;;;;;5071110;28;20208;-72
2021/11/22 05:08:39;;;;;;;9.27;4.40;;;3.80;99.90;;;;;;5072221;28;20202;-72
2021/11/22 05:11:08;;;;;;;7.97;4.00;;;3.80;99.90;;;;;;5057716;28;20198;-72
2021/11/22 05:13:35;;;;;;;7.40;4.10;;;3.70;99.90;;;;;;5056126;28;20204;-72
2021/11/22 05:16:01;;;;;;;9.50;4.73;;;3.70;99.90;;;;;;5070574;28;20228;-72
2021/11/22 05:18:28;;;;;;;8.03;4.53;;;3.60;99.90;;;;;;5071976;28;20633;-72
2021/11/22 05:20:55;;;;;;;6.87;4.40;;;3.60;99.90;;;;;;5070853;28;20198;-72
2021/11/22 05:23:22;;;;;;;6.53;4.23;;;3.60;99.90;;;;;;5071884;28;20560;-72
2021/11/22 05:25:49;;;;;;;9.60;5.07;;;3.50;99.90;;;;;;5070223;28;20201;-72
2021/11/22 05:28:18;;;;;;;10.60;5.77;;;3.50;99.90;;;;;;5070799;28;20233;-73
2021/11/22 05:30:44;;;;;;;8.47;5.63;;;3.40;99.90;;;;;;5070677;28;20194;-72
2021/11/22 05:33:11;;;;;;;8.23;5.23;;;3.30;99.90;;;;;;5071226;28;20202;-72
2021/11/22 05:35:38;;;;;;;9.57;4.93;;;3.30;99.90;;;;;;5067891;28;20198;-73
2021/11/22 05:38:05;;;;;;;7.60;4.93;;;3.30;99.90;;;;;;5069919;28;20201;-73
2021/11/22 05:40:32;;;;;;;7.70;4.40;;;3.20;99.90;;;;;;5070132;28;20202;-73
2021/11/22 05:42:59;;;;;;;6.60;4.03;;;3.20;99.90;;;;;;5071484;28;20206;-73
2021/11/22 05:45:28;;;;;;;7.00;4.23;;;3.10;99.90;;;;;;5067322;28;20754;-73
2021/11/22 05:47:55;;;;;;;7.10;4.23;;;3.10;99.90;;;;;;5060693;28;20218;-73
2021/11/22 05:50:22;;;;;;;8.60;4.27;;;3.10;99.90;;;;;;5071089;28;20203;-72
2021/11/22 05:52:52;;;;;;;9.43;3.90;;;3.00;99.90;;;;;;5054253;28;20202;-73
2021/11/22 05:55:33;;;;;;;6.03;3.60;;;3.10;99.90;;;;;;5053853;28;20229;-73
2021/11/22 05:57:59;;;;;;;7.07;4.10;;;3.10;99.90;;;;;;5064653;28;20195;-73
2021/11/22 06:00:28;;;;;;;5.37;3.50;;;3.10;99.90;;;;;;5054318;28;20656;-73
2021/11/22 06:02:55;;;;;;;7.60;4.13;;;3.00;99.90;;;;;;5071677;28;20297;-73
2021/11/22 06:05:22;;;;;;;5.77;3.60;;;2.90;99.90;;;;;;5067846;28;20199;-73
2021/11/22 06:07:49;;;;;;;7.77;3.60;;;2.90;99.90;;;;;;5068644;28;20566;-72
2021/11/22 06:10:15;;;;;;;5.17;3.07;;;2.90;99.90;;;;;;5051515;28;20301;-72
2021/11/22 06:12:43;;;;;;;7.17;3.20;;;2.80;99.90;;;;;;5061113;28;20652;-72
2021/11/22 06:15:10;;;;;;;5.63;3.27;;;2.80;99.90;;;;;;5074036;28;20203;-73
2021/11/22 06:17:39;;;;;;;6.67;4.47;;;2.80;99.90;;;;;;5054497;28;20195;-73
2021/11/22 06:20:08;;;;;;;5.47;3.47;;;2.80;99.90;;;;;;5064501;28;20207;-73
2021/11/22 06:22:35;;;;;;;6.63;3.73;;;2.80;99.90;;;;;;5073980;28;20213;-72
2021/11/22 06:25:02;;;;;;;7.07;4.83;;;2.80;99.90;;;;;;5073375;28;20198;-73
2021/11/22 06:27:29;;;;;;;7.97;3.67;;;2.80;99.90;;;;;;5073838;28;20694;-72
2021/11/22 06:29:56;;;;;;;5.73;3.37;;;2.70;99.90;;;;;;5063523;28;20222;-73
2021/11/22 06:32:26;;;;;;;5.50;3.77;;;2.60;99.90;;;;;;5072834;28;20209;-73
2021/11/22 06:34:55;;;;;;;5.27;3.37;;;2.60;99.90;;;;;;5074031;28;20298;-72
2021/11/22 06:37:22;;;;;;;5.70;3.30;;;2.60;99.90;;;;;;5067807;28;20191;-72
2021/11/22 06:39:49;;;;;;;6.33;3.03;;;2.60;99.90;;;;;;5063921;28;20640;-73
2021/11/22 06:42:17;;;;;;;6.93;3.70;;;2.50;99.90;;;;;;5074376;28;20293;-72
2021/11/22 06:44:44;;;;;;;5.13;3.20;;;2.30;99.90;;;;;;5073128;28;20202;-73
2021/11/22 06:47:11;;;;;;;4.30;3.03;;;2.30;99.90;;;;;;5055341;28;20497;-73
2021/11/22 06:49:38;;;;;;;5.63;3.10;;;2.30;99.90;;;;;;5068485;28;20281;-73
2021/11/22 06:52:07;;;;;;;7.03;3.30;;;2.30;99.90;;;;;;5058831;28;20209;-72
2021/11/22 06:54:34;;;;;;;4.57;2.87;;;2.40;99.90;;;;;;5069906;28;20194;-73
2021/11/22 06:57:02;;;;;;;6.63;3.30;;;2.40;99.90;;;;;;5073679;28;20198;-73
2021/11/22 06:59:29;;;;;;;6.73;3.03;;;2.40;99.90;;;;;;5072698;28;20301;-73
2021/11/22 07:01:57;;;;;;;6.37;2.97;;;2.40;99.90;;;;;;5054495;28;20210;-73
2021/11/22 07:04:23;;;;;;;5.17;3.07;;;2.50;99.90;;;;;;5056468;28;20298;-72
2021/11/22 07:06:51;;;;;;;5.03;3.20;;;2.40;99.90;;;;;;5066809;28;20210;-73
2021/11/22 07:09:20;;;;;;;5.57;3.33;;;2.50;99.90;;;;;;5072641;28;20198;-72
2021/11/22 07:11:47;;;;;;;7.07;3.20;;;2.50;99.90;;;;;;5067986;28;20293;-73
2021/11/22 07:14:14;;;;;;;4.83;2.93;;;2.50;99.90;;;;;;5073942;28;20241;-72
2021/11/22 07:16:41;;;;;;;7.73;3.13;;;2.60;99.90;;;;;;5054388;28;20205;-73
2021/11/22 07:19:08;;;;;;;6.70;3.27;;;2.60;99.90;;;;;;5068251;28;20294;-72
2021/11/22 07:21:35;;;;;;;5.00;3.47;;;2.50;99.90;;;;;;5073515;28;20206;-72
2021/11/22 07:24:01;;;;;;;9.43;3.07;;;2.50;99.90;;;;;;5073277;28;20229;-73
2021/11/22 07:26:30;;;;;;;5.87;3.03;;;2.50;99.90;;;;;;5073681;28;20656;-73
2021/11/22 07:28:56;;;;;;;4.80;3.07;;;2.60;99.90;;;;;;5072385;28;20607;-73
2021/11/22 07:31:23;;;;;;;8.00;3.50;;;2.60;99.90;;;;;;5073759;28;20199;-72
2021/11/22 07:33:50;;;;;;;5.70;3.70;;;2.50;99.90;;;;;;5070399;28;20195;-73
2021/11/22 07:36:17;;;;;;;4.87;2.87;;;2.60;99.90;;;;;;5073641;28;20218;-72
2021/11/22 07:38:44;;;;;;;7.73;3.40;;;2.40;99.90;;;;;;5075549;28;20198;-72
2021/11/22 07:41:11;;;;;;;7.20;3.63;;;2.60;99.90;;;;;;5073131;28;20695;-72
2021/11/22 07:43:39;;;;;;;5.13;3.20;;;2.50;99.90;;;;;;5072666;28;20222;-73
2021/11/22 07:46:06;;;;;;;7.90;3.80;;;2.60;99.90;;;;;;5073341;28;20213;-72
2021/11/22 07:48:34;;;;;;;6.00;3.50;;;2.60;99.90;;;;;;5060471;28;20452;-72
2021/11/22 07:51:02;;;;;;;10.20;4.07;;;2.60;99.90;;;;;;5073013;28;20664;-72
2021/11/22 07:53:29;;;;;;;5.80;3.60;;;2.70;99.90;;;;;;5072885;28;20194;-72
2021/11/22 07:55:56;;;;;;;9.27;4.67;;;2.60;99.90;;;;;;5073420;28;20206;-73
2021/11/22 07:58:23;;;;;;;11.80;6.03;;;2.60;99.90;;;;;;5068039;28;20904;-73
2021/11/22 08:00:52;;;;;;;9.23;4.83;;;2.70;99.90;;;;;;5071931;28;20656;-73
2021/11/22 08:03:18;;;;;;;10.83;4.90;;;2.70;99.90;;;;;;5072416;28;20248;-72
2021/11/22 08:05:48;;;;;;;14.07;6.43;;;2.90;99.90;;;;;;5070281;28;20220;-73
2021/11/22 08:08:16;;;;;;;10.40;5.73;;;3.20;99.90;;;;;;5053255;28;20306;-73
2021/11/22 08:10:47;;;;;;;11.20;5.93;;;3.30;99.90;;;;;;5052006;28;20202;-72
2021/11/22 08:13:14;;;;;;;10.97;5.20;;;3.40;99.90;;;;;;5070369;28;20198;-72
2021/11/22 08:15:41;;;;;;;10.63;5.77;;;3.50;99.90;;;;;;5072359;28;20209;-73
2021/11/22 08:18:09;;;;;;;11.30;4.90;;;4.40;99.90;;;;;;5053645;28;20199;-73
2021/11/22 08:20:37;;;;;;;10.13;5.63;;;4.90;99.90;;;;;;5058285;28;20210;-73
2021/11/22 08:23:04;;;;;;;10.07;4.77;;;5.00;99.90;;;;;;5066413;28;20202;-73
2021/11/22 08:25:33;;;;;;;8.30;4.60;;;5.20;99.90;;;;;;5092366;28;20198;-73
2021/11/22 08:28:00;;;;;;;10.00;3.93;;;5.10;99.90;;;;;;5072553;28;20222;-73
2021/11/22 08:30:30;;;;;;;9.63;4.70;;;5.20;99.90;;;;;;5069018;28;20198;-73
2021/11/22 08:32:58;;;;;;;9.23;4.10;;;5.00;99.90;;;;;;5058354;28;20214;-73
2021/11/22 08:35:28;;;;;;;7.13;3.43;;;4.20;99.90;;;;;;5052314;28;20211;-73
2021/11/22 08:37:55;;;;;;;5.97;3.20;;;4.30;99.90;;;;;;5069256;28;20206;-73
2021/11/22 08:40:23;;;;;;;5.20;3.00;;;4.40;99.90;;;;;;5071650;28;20206;-73
2021/11/22 08:42:51;;;;;;;4.73;2.30;;;4.30;99.90;;;;;;5064494;28;20198;-72
2021/11/22 08:45:19;;;;;;;4.87;2.60;;;4.40;99.90;;;;;;5070315;28;20202;-73
2021/11/22 08:47:46;;;;;;;5.20;2.40;;;4.40;99.90;;;;;;5071376;28;20213;-72
2021/11/22 08:50:14;;;;;;;5.13;2.00;;;4.90;99.90;;;;;;5072380;28;20206;-73
2021/11/22 08:52:43;;;;;;;6.27;2.20;;;5.20;99.90;;;;;;5077957;28;20197;-72
2021/11/22 08:55:11;;;;;;;4.60;2.17;;;4.70;99.90;;;;;;5073292;28;20202;-72
2021/11/22 08:57:39;;;;;;;4.03;2.27;;;4.80;99.90;;;;;;5071331;28;20206;-72
2021/11/22 09:00:09;;;;;;;6.27;2.50;;;4.70;99.90;;;;;;5071224;28;20198;-73
2021/11/22 09:02:36;;;;;;;7.47;2.10;;;5.00;99.90;;;;;;5069745;28;20206;-73
2021/11/22 09:05:04;;;;;;;5.17;2.50;;;4.80;99.90;;;;;;5059738;28;20198;-73
2021/11/22 09:07:31;;;;;;;3.13;2.10;;;5.50;99.90;;;;;;5067050;28;20206;-73
2021/11/22 09:09:59;;;;;;;4.83;1.97;;;5.80;99.90;;;;;;5073483;28;20746;-73
2021/11/22 09:12:26;;;;;;;5.27;2.20;;;5.60;99.90;;;;;;5080721;28;20231;-73
2021/11/22 09:14:54;;;;;;;3.00;1.77;;;6.30;99.90;;;;;;5071402;28;20577;-73
2021/11/22 09:17:21;;;;;;;7.10;2.40;;;7.80;99.90;;;;;;5070307;28;20199;-73
2021/11/22 09:19:48;;;;;;;6.53;2.20;;;6.50;99.90;;;;;;5065768;28;20202;-73
2021/11/22 09:22:15;;;;;;;3.47;1.90;;;6.30;99.90;;;;;;5071881;28;20658;-73
2021/11/22 09:24:43;;;;;;;7.00;2.63;;;6.00;99.90;;;;;;5071195;28;20206;-73
2021/11/22 09:27:11;;;;;;;4.23;1.90;;;5.70;99.90;;;;;;5071529;28;20565;-73
2021/11/22 09:29:38;;;;;;;8.37;2.30;;;5.50;99.90;;;;;;5067683;28;20222;-73
2021/11/22 09:32:06;;;;;;;6.73;2.40;;;5.60;99.90;;;;;;5071625;28;20648;-73
2021/11/22 09:34:33;;;;;;;5.83;2.70;;;5.60;99.90;;;;;;5070217;28;20560;-73
2021/11/22 09:37:00;;;;;;;7.80;2.87;;;5.80;99.90;;;;;;5071547;28;20289;-73
2021/11/22 09:39:27;;;;;;;5.97;2.37;;;5.90;99.90;;;;;;5069967;28;20201;-73
2021/11/22 09:41:54;;;;;;;6.63;3.00;;;5.90;99.90;;;;;;5070899;28;20660;-73
2021/11/22 09:44:23;;;;;;;9.67;3.50;;;5.70;99.90;;;;;;5071257;28;20222;-73
2021/11/22 09:46:53;;;;;;;4.83;2.60;;;6.10;99.90;;;;;;5073676;28;20199;-73
2021/11/22 09:49:20;;;;;;;4.90;2.60;;;6.10;99.90;;;;;;5073631;28;20272;-73
2021/11/22 09:51:48;;;;;;;7.33;2.90;;;6.30;99.90;;;;;;5072769;28;20201;-73
2021/11/22 09:54:15;;;;;;;10.13;4.43;;;6.20;99.90;;;;;;5077985;28;20678;-73
2021/11/22 09:56:42;;;;;;;8.30;3.77;;;6.10;99.90;;;;;;5078533;28;20194;-73
2021/11/22 09:59:09;;;;;;;6.80;3.20;;;6.20;99.90;;;;;;5076650;28;20195;-73
2021/11/22 10:01:39;;;;;;;6.97;3.17;;;6.40;99.90;;;;;;5077144;28;20189;-73
2021/11/22 10:04:08;;;;;;;8.10;3.63;;;6.60;99.90;;;;;;5074494;28;20676;-73
2021/11/22 10:06:50;;;;;;;9.83;3.80;;;6.70;99.90;;;;;;5074891;28;20199;-73
2021/11/22 10:09:46;;;;;;;8.70;3.30;;;6.60;99.90;;;;;;5075608;28;20680;-73
2021/11/22 10:12:18;;;;;;;6.03;3.23;;;6.60;99.90;;;;;;5046832;28;20205;-73
2021/11/22 10:14:48;;;;;;;10.20;4.03;;;6.80;99.90;;;;;;5076963;28;20607;-73
2021/11/22 10:17:26;;;;;;;5.30;2.67;;;6.90;99.90;;;;;;5078135;28;20209;-73
2021/11/22 10:20:22;;;;;;;5.57;2.67;;;6.90;99.90;;;;;;5077581;28;20288;-73
2021/11/22 10:23:00;;;;;;;4.70;2.20;;;7.00;99.90;;;;;;5073389;28;21537;-73
2021/11/22 10:25:31;;;;;;;5.43;2.53;;;6.60;99.90;;;;;;5074182;28;20194;-73
2021/11/22 10:28:05;;;;;;;4.97;2.53;;;6.50;99.90;;;;;;5076976;28;20691;-73
2021/11/22 10:30:34;;;;;;;3.83;2.07;;;6.80;99.90;;;;;;5077822;28;20212;-73
2021/11/22 10:33:05;;;;;;;5.27;2.60;;;6.70;99.90;;;;;;5074802;28;20209;-72
2021/11/22 10:35:34;;;;;;;4.83;2.50;;;6.90;99.90;;;;;;5070052;28;20213;-73
2021/11/22 10:38:04;;;;;;;5.57;2.50;;;6.80;99.90;;;;;;5073477;28;20210;-73
2021/11/22 10:40:35;;;;;;;3.47;2.23;;;6.70;99.90;;;;;;5068813;28;20225;-73
2021/11/22 10:43:02;;;;;;;8.80;3.50;;;6.50;99.90;;;;;;5070758;28;20209;-73
2021/11/22 10:45:33;;;;;;;6.13;2.83;;;6.50;99.90;;;;;;5072679;28;20209;-73
2021/11/22 10:48:17;;;;;;;6.73;3.23;;;6.50;99.90;;;;;;5069014;28;20213;-73
2021/11/22 10:50:51;;;;;;;5.90;2.87;;;6.30;99.90;;;;;;5060293;28;20210;-73
2021/11/22 10:53:34;;;;;;;5.87;2.90;;;6.50;99.90;;;;;;5050613;28;20207;-73
2021/11/22 10:56:02;;;;;;;6.20;3.13;;;6.40;99.90;;;;;;5059296;28;20310;-73
2021/11/22 10:58:49;;;;;;;4.93;2.37;;;6.40;99.90;;;;;;5050754;28;20195;-73
2021/11/22 11:01:26;;;;;;;6.40;2.20;;;6.20;99.90;;;;;;5065951;28;20247;-73
2021/11/22 11:04:01;;;;;;;5.90;2.70;;;6.50;99.90;;;;;;5068163;28;20206;-73
2021/11/22 11:06:36;;;;;;;5.73;2.77;;;6.40;99.90;;;;;;5056010;28;20202;-73
2021/11/22 11:09:04;;;;;;;4.90;2.50;;;6.40;99.90;;;;;;5060688;28;20604;-73
2021/11/22 11:11:31;;;;;;;5.90;2.50;;;6.60;99.90;;;;;;5067950;28;20700;-73
2021/11/22 11:14:03;;;;;;;6.40;3.23;;;6.60;99.90;;;;;;5054307;28;20207;-73
2021/11/22 11:16:30;;;;;;;5.43;2.60;;;6.60;99.90;;;;;;5050579;28;20214;-73
2021/11/22 11:19:00;;;;;;;4.40;2.43;;;6.70;99.90;;;;;;5065643;28;20221;-73
2021/11/22 11:21:29;;;;;;;8.47;2.80;;;6.70;99.90;;;;;;5059770;28;20207;-73
2021/11/22 11:23:57;;;;;;;3.93;2.50;;;6.80;99.90;;;;;;5059606;28;20647;-73
2021/11/22 11:26:25;;;;;;;6.83;3.20;;;6.60;99.90;;;;;;5051608;28;20213;-73
2021/11/22 11:28:52;;;;;;;4.93;2.60;;;6.50;99.90;;;;;;5073851;28;20695;-73
2021/11/22 11:31:19;;;;;;;4.43;2.10;;;6.60;99.90;;;;;;5068645;28;20199;-73
2021/11/22 11:33:47;;;;;;;3.43;2.17;;;6.50;99.90;;;;;;5068182;28;20202;-73
2021/11/22 11:36:31;;;;;;;4.30;2.47;;;6.40;99.90;;;;;;5064492;28;20198;-73
2021/11/22 11:39:11;;;;;;;4.07;2.80;;;6.50;99.90;;;;;;5068463;28;20198;-73
2021/11/22 11:41:47;;;;;;;7.13;2.40;;;7.10;99.90;;;;;;5064115;28;20198;-73
2021/11/22 11:44:41;;;;;;;3.50;2.23;;;9.20;99.90;;;;;;5062429;28;20274;-73
2021/11/22 11:47:31;;;;;;;3.37;2.20;;;9.70;99.90;;;;;;5060692;28;20214;-73
2021/11/22 11:49:58;;;;;;;5.17;2.20;;;9.30;99.70;;;;;;5068578;28;20221;-73
2021/11/22 11:52:29;;;;;;;4.60;2.20;;;10.10;99.10;;;;;;5067169;28;20672;-73
2021/11/22 11:54:58;;;;;;;4.10;2.30;;;10.70;96.20;;;;;;5068243;28;20568;-73
2021/11/22 11:57:27;;;;;;;3.70;1.50;;;10.30;97.70;;;;;;5067416;28;20202;-73
2021/11/22 11:59:55;;;;;;;2.93;1.17;;;8.70;98.00;;;;;;5066652;28;20224;-73
2021/11/22 12:02:29;;;;;;;2.27;1.10;;;8.30;99.90;;;;;;5065420;28;20417;-73
2021/11/22 12:04:59;;;;;;;2.83;1.07;;;7.60;99.90;;;;;;5068848;28;20202;-73
2021/11/22 12:07:30;;;;;;;1.43;1.07;;;7.60;99.90;;;;;;5069270;28;20210;-73
2021/11/22 12:10:10;;;;;;;1.23;1.10;;;7.60;99.90;;;;;;5072281;28;20237;-73
2021/11/22 12:12:38;;;;;;;2.90;1.30;;;7.60;99.90;;;;;;5076642;28;20229;-73
2021/11/22 12:15:06;;;;;;;5.00;1.47;;;8.30;99.90;;;;;;5073236;28;20731;-73
2021/11/22 12:18:10;;;;;;;1.77;1.07;;;8.30;99.90;;;;;;5071388;28;20214;-73
2021/11/22 12:20:59;;;;;;;4.27;1.20;;;8.30;99.90;;;;;;5070526;28;20205;-73
2021/11/22 12:23:39;;;;;;;2.87;1.27;;;8.60;98.20;;;;;;5069507;28;20202;-73
2021/11/22 12:26:06;;;;;;;3.00;1.80;;;8.30;99.90;;;;;;5074480;28;20206;-73
2021/11/22 12:28:51;;;;;;;2.47;1.50;;;8.80;99.90;;;;;;5077299;28;20206;-73
2021/11/22 12:31:28;;;;;;;5.10;1.70;;;9.30;98.40;;;;;;5069480;28;20205;-73
2021/11/22 12:34:02;;;;;;;4.73;2.37;;;9.60;96.20;;;;;;5068028;28;20209;-73
2021/11/22 12:36:32;;;;;;;5.53;2.17;;;10.00;96.20;;;;;;5069006;28;20212;-73
2021/11/22 12:39:16;;;;;;;4.10;2.43;;;10.00;96.00;;;;;;5067594;28;20340;-73
2021/11/22 12:41:45;;;;;;;4.13;1.90;;;9.30;98.10;;;;;;5070944;28;20205;-73
2021/11/22 12:44:15;;;;;;;5.03;1.77;;;8.30;97.80;;;;;;5075957;28;20739;-73
2021/11/22 12:46:49;;;;;;;5.17;1.90;;;7.90;99.20;;;;;;5065180;28;20209;-73
2021/11/22 12:49:34;;;;;;;3.30;1.77;;;7.70;99.50;;;;;;5067743;28;20706;-73
2021/11/22 12:52:25;;;;;;;3.00;1.90;;;7.80;99.80;;;;;;5078606;28;20301;-73
2021/11/22 12:54:59;;;;;;;1.77;1.47;;;8.40;99.60;;;;;;5071226;28;20202;-73
2021/11/22 12:57:29;;;;;;;4.03;1.70;;;8.80;98.20;;;;;;5069853;28;20213;-73
2021/11/22 13:00:26;;;;;;;4.07;1.53;;;8.80;98.30;;;;;;5073588;28;20220;-73
2021/11/22 13:03:05;;;;;;;3.20;1.40;;;8.70;95.90;;;;;;5064149;28;20640;-73
2021/11/22 13:05:55;;;;;;;3.63;1.10;;;8.80;97.40;;;;;;5073343;28;20218;-73